Strona główna
Zdjęcia satelitarne 15-dni prognozyKlimatMeteorologia morska Cyklony Błyskawica LotniskoFAQ Gazetka O
Pogoda : Europa Afryka Ameryka Północna Ameryka Południowa Azja Australia-Oceania Inny
Języki Kontakt

Poznań, Polska

Ławica

Szerokość geograficzna: 52-25N, Długość geograficzna: 016-50E, wysokość: 86 m


METAR: EPPO 290530Z 10010KT 8000 NSC M04/M06 Q1026
TAF: EPPO 290530Z 2906/3006 09012KT 8000 SCT015 TEMPO 2906/3006 BKN010 PROB30 2906/2910 5000 BR

czas: 06:54 (05:54 UTC)

Aktualna obserwacja pogody

Raport powstał 24 minut temu, godzina 05:30 UTC
Wiatr 10 kt od wschód
Temperatura -4°C
Wilgotność 86%
Ciśnienie 1026 hPa
Widzialność: 8000 m

Jednostka miary

Prognoza

Raport powstał 24 minut temu, godzina 05:30 UTC
Prognoza ważna od 29 godzina 06 UTC do 30 godzina 06 UTC
Wiatr 12 kt od wschód
Widzialność: 8000 m
Rozproszone chmury na wysokości 1500 ft
Przejściowo
od 29 godzina 06 UTC do 30 godzina 06 UTC
Przerywane chmury na wysokości 1000 ft
Prawdopodobieństwo 30%
od 29 godzina 06 UTC do 29 godzina 10 UTC
Widzialność: 5000 m
zamglenie
Informacje na tej stronie internetowej podlegają klauzuli o wyłączeniu odpowiedzialności
Pogoda : Europa Afryka Ameryka Północna Ameryka Południowa Azja Australia-Oceania Inny
Zdjęcia satelitarne 15-dni prognozyKlimatMeteorologia morska Cyklony Błyskawica LotniskoFAQ Języki Kontakt Gazetka O